Edgewood, New York
Current Conditions -  °F | °C
As of 6:56 PM on Monday 24 Nov 2014 (Local Time) from KISP Reporting Station
Scattered Clouds Scattered Clouds  
Wind Chill: 15°   Ceiling: Unl
Heat Index: 15°   Visibility: 10mi
Dew Point: 13°   Wind: 16mph
Humidity: 87%   Direction: 220°SW
Pressure: 29.69"   Gusts: NA
Location:  40.7837°N, 73.252°W
Report Text: KISP 242356Z 22014KT 10SM FEW070 SCT260 15/13 A2969 RMK AO2 PK WND 24026/2305 SLP055 T01500128 10156 20139 51026
Loading
Personal Weather Stations






























Interactive Weather Map New forecast layout! Learn more

10-Day Weather Forecast

Advertisements
Track Severe Weather on mobile